sensor_id;sensor_type;location;lat;lon;timestamp;P1;durP1;ratioP1;P2;durP2;ratioP2
39518;SDS011;25200;53.394;10.414;2022-10-23T00:03:47;7.70;;;4.90;;
39518;SDS011;25200;53.394;10.414;2022-10-23T00:06:15;8.18;;;4.45;;
39518;SDS011;25200;53.394;10.414;2022-10-23T00:08:41;10.60;;;6.13;;
39518;SDS011;25200;53.394;10.414;2022-10-23T00:11:10;8.90;;;4.93;;
39518;SDS011;25200;53.394;10.414;2022-10-23T00:13:38;8.25;;;4.90;;
39518;SDS011;25200;53.394;10.414;2022-10-23T00:16:04;9.88;;;4.72;;
39518;SDS011;25200;53.394;10.414;2022-10-23T00:18:30;10.82;;;5.68;;
39518;SDS011;25200;53.394;10.414;2022-10-23T00:20:56;10.90;;;5.40;;
39518;SDS011;25200;53.394;10.414;2022-10-23T00:23:21;7.82;;;5.20;;
39518;SDS011;25200;53.394;10.414;2022-10-23T00:25:47;6.57;;;4.30;;
39518;SDS011;25200;53.394;10.414;2022-10-23T00:28:13;10.75;;;4.78;;
39518;SDS011;25200;53.394;10.414;2022-10-23T00:30:39;9.93;;;5.07;;
39518;SDS011;25200;53.394;10.414;2022-10-23T00:33:04;9.63;;;5.10;;
39518;SDS011;25200;53.394;10.414;2022-10-23T00:35:30;8.60;;;4.75;;
39518;SDS011;25200;53.394;10.414;2022-10-23T00:37:56;12.35;;;5.10;;
39518;SDS011;25200;53.394;10.414;2022-10-23T00:40:21;9.82;;;4.82;;
39518;SDS011;25200;53.394;10.414;2022-10-23T00:42:47;13.35;;;4.97;;
39518;SDS011;25200;53.394;10.414;2022-10-23T00:45:15;10.25;;;5.00;;
39518;SDS011;25200;53.394;10.414;2022-10-23T00:47:43;9.80;;;4.90;;
39518;SDS011;25200;53.394;10.414;2022-10-23T00:50:09;12.93;;;5.40;;
39518;SDS011;25200;53.394;10.414;2022-10-23T00:52:36;18.35;;;5.53;;
39518;SDS011;25200;53.394;10.414;2022-10-23T00:55:09;10.00;;;5.50;;
39518;SDS011;25200;53.394;10.414;2022-10-23T00:57:34;10.98;;;5.03;;
39518;SDS011;25200;53.394;10.414;2022-10-23T01:00:02;10.13;;;5.43;;
39518;SDS011;25200;53.394;10.414;2022-10-23T01:02:28;11.50;;;5.38;;
39518;SDS011;25200;53.394;10.414;2022-10-23T01:04:54;9.38;;;5.15;;
39518;SDS011;25200;53.394;10.414;2022-10-23T01:07:33;11.75;;;5.95;;
39518;SDS011;25200;53.394;10.414;2022-10-23T01:10:18;10.25;;;5.65;;
39518;SDS011;25200;53.394;10.414;2022-10-23T01:13:13;10.63;;;5.22;;
39518;SDS011;25200;53.394;10.414;2022-10-23T01:15:51;11.60;;;5.03;;
39518;SDS011;25200;53.394;10.414;2022-10-23T01:18:30;13.50;;;5.80;;
39518;SDS011;25200;53.394;10.414;2022-10-23T01:20:59;10.55;;;4.63;;
39518;SDS011;25200;53.394;10.414;2022-10-23T01:23:54;9.35;;;5.28;;
39518;SDS011;25200;53.394;10.414;2022-10-23T01:26:30;10.23;;;4.63;;
39518;SDS011;25200;53.394;10.414;2022-10-23T01:29:50;11.55;;;4.70;;
39518;SDS011;25200;53.394;10.414;2022-10-23T01:37:10;10.05;;;5.07;;
39518;SDS011;25200;53.394;10.414;2022-10-23T01:39:40;10.40;;;5.53;;
39518;SDS011;25200;53.394;10.414;2022-10-23T01:42:12;11.90;;;5.18;;
39518;SDS011;25200;53.394;10.414;2022-10-23T01:45:01;10.30;;;4.32;;
39518;SDS011;25200;53.394;10.414;2022-10-23T01:47:31;11.48;;;5.07;;
39518;SDS011;25200;53.394;10.414;2022-10-23T01:49:59;11.70;;;5.60;;
39518;SDS011;25200;53.394;10.414;2022-10-23T01:52:27;11.65;;;5.65;;
39518;SDS011;25200;53.394;10.414;2022-10-23T01:54:53;11.57;;;5.00;;
39518;SDS011;25200;53.394;10.414;2022-10-23T01:57:23;10.73;;;5.57;;
39518;SDS011;25200;53.394;10.414;2022-10-23T01:59:54;10.10;;;4.57;;
39518;SDS011;25200;53.394;10.414;2022-10-23T02:02:23;12.57;;;5.03;;
39518;SDS011;25200;53.394;10.414;2022-10-23T02:05:01;12.55;;;5.35;;
39518;SDS011;25200;53.394;10.414;2022-10-23T02:07:31;10.27;;;5.22;;
39518;SDS011;25200;53.394;10.414;2022-10-23T02:09:58;10.75;;;5.40;;
39518;SDS011;25200;53.394;10.414;2022-10-23T02:15:24;7.53;;;4.55;;
39518;SDS011;25200;53.394;10.414;2022-10-23T02:18:07;7.57;;;4.47;;
39518;SDS011;25200;53.394;10.414;2022-10-23T02:20:52;11.43;;;4.95;;
39518;SDS011;25200;53.394;10.414;2022-10-23T02:23:41;9.90;;;4.68;;
39518;SDS011;25200;53.394;10.414;2022-10-23T02:26:23;9.73;;;5.30;;
39518;SDS011;25200;53.394;10.414;2022-10-23T02:29:02;14.57;;;5.45;;
39518;SDS011;25200;53.394;10.414;2022-10-23T02:31:42;8.73;;;5.30;;
39518;SDS011;25200;53.394;10.414;2022-10-23T02:34:07;9.05;;;5.25;;
39518;SDS011;25200;53.394;10.414;2022-10-23T02:36:33;8.73;;;4.75;;
39518;SDS011;25200;53.394;10.414;2022-10-23T02:38:59;11.55;;;4.88;;
39518;SDS011;25200;53.394;10.414;2022-10-23T02:52:45;11.05;;;5.00;;
39518;SDS011;25200;53.394;10.414;2022-10-23T02:58:28;8.65;;;4.80;;
39518;SDS011;25200;53.394;10.414;2022-10-23T03:01:06;11.25;;;5.20;;
39518;SDS011;25200;53.394;10.414;2022-10-23T03:03:37;9.65;;;5.28;;
39518;SDS011;25200;53.394;10.414;2022-10-23T03:06:06;12.48;;;5.68;;
39518;SDS011;25200;53.394;10.414;2022-10-23T03:08:43;14.02;;;4.97;;
39518;SDS011;25200;53.394;10.414;2022-10-23T03:11:12;12.10;;;5.43;;
39518;SDS011;25200;53.394;10.414;2022-10-23T03:13:38;11.82;;;5.35;;
39518;SDS011;25200;53.394;10.414;2022-10-23T03:16:04;11.50;;;5.15;;
39518;SDS011;25200;53.394;10.414;2022-10-23T03:18:29;11.95;;;5.20;;
39518;SDS011;25200;53.394;10.414;2022-10-23T03:20:55;8.60;;;5.20;;
39518;SDS011;25200;53.394;10.414;2022-10-23T03:23:21;8.70;;;4.45;;
39518;SDS011;25200;53.394;10.414;2022-10-23T03:25:46;10.55;;;4.95;;
39518;SDS011;25200;53.394;10.414;2022-10-23T03:28:12;10.30;;;5.53;;
39518;SDS011;25200;53.394;10.414;2022-10-23T03:30:38;11.98;;;5.80;;
39518;SDS011;25200;53.394;10.414;2022-10-23T03:33:03;9.70;;;5.28;;
39518;SDS011;25200;53.394;10.414;2022-10-23T03:35:29;10.50;;;5.30;;
39518;SDS011;25200;53.394;10.414;2022-10-23T03:37:55;9.80;;;4.72;;
39518;SDS011;25200;53.394;10.414;2022-10-23T03:40:20;11.32;;;5.95;;
39518;SDS011;25200;53.394;10.414;2022-10-23T03:42:46;11.60;;;5.88;;
39518;SDS011;25200;53.394;10.414;2022-10-23T03:45:12;13.65;;;6.15;;
39518;SDS011;25200;53.394;10.414;2022-10-23T03:47:37;9.10;;;4.75;;
39518;SDS011;25200;53.394;10.414;2022-10-23T03:50:05;12.48;;;5.32;;
39518;SDS011;25200;53.394;10.414;2022-10-23T03:52:32;9.63;;;4.70;;
39518;SDS011;25200;53.394;10.414;2022-10-23T03:54:57;9.52;;;4.97;;
39518;SDS011;25200;53.394;10.414;2022-10-23T03:57:23;13.35;;;5.20;;
39518;SDS011;25200;53.394;10.414;2022-10-23T03:59:49;13.02;;;5.80;;
39518;SDS011;25200;53.394;10.414;2022-10-23T04:02:14;13.85;;;5.10;;
39518;SDS011;25200;53.394;10.414;2022-10-23T04:04:40;8.90;;;4.90;;
39518;SDS011;25200;53.394;10.414;2022-10-23T04:07:05;12.25;;;5.35;;
39518;SDS011;25200;53.394;10.414;2022-10-23T04:09:31;8.20;;;4.35;;
39518;SDS011;25200;53.394;10.414;2022-10-23T04:11:57;11.38;;;5.72;;
39518;SDS011;25200;53.394;10.414;2022-10-23T04:14:22;8.85;;;4.85;;
39518;SDS011;25200;53.394;10.414;2022-10-23T04:16:48;7.78;;;4.35;;
39518;SDS011;25200;53.394;10.414;2022-10-23T04:19:14;10.65;;;5.22;;
39518;SDS011;25200;53.394;10.414;2022-10-23T04:21:41;11.15;;;5.55;;
39518;SDS011;25200;53.394;10.414;2022-10-23T04:24:07;15.27;;;5.07;;
39518;SDS011;25200;53.394;10.414;2022-10-23T04:26:32;7.97;;;4.60;;
39518;SDS011;25200;53.394;10.414;2022-10-23T04:28:58;10.52;;;5.00;;
39518;SDS011;25200;53.394;10.414;2022-10-23T04:31:24;11.10;;;5.25;;
39518;SDS011;25200;53.394;10.414;2022-10-23T04:33:49;8.02;;;4.78;;
39518;SDS011;25200;53.394;10.414;2022-10-23T04:36:15;9.23;;;4.75;;
39518;SDS011;25200;53.394;10.414;2022-10-23T04:38:41;10.70;;;4.47;;
39518;SDS011;25200;53.394;10.414;2022-10-23T04:41:07;7.85;;;4.32;;
39518;SDS011;25200;53.394;10.414;2022-10-23T04:43:32;12.50;;;5.43;;
39518;SDS011;25200;53.394;10.414;2022-10-23T04:45:58;13.73;;;5.10;;
39518;SDS011;25200;53.394;10.414;2022-10-23T04:48:24;8.57;;;4.68;;
39518;SDS011;25200;53.394;10.414;2022-10-23T04:50:59;14.65;;;4.75;;
39518;SDS011;25200;53.394;10.414;2022-10-23T04:53:27;9.93;;;4.93;;
39518;SDS011;25200;53.394;10.414;2022-10-23T04:55:54;7.70;;;3.88;;
39518;SDS011;25200;53.394;10.414;2022-10-23T04:58:21;7.05;;;4.40;;
39518;SDS011;25200;53.394;10.414;2022-10-23T05:00:48;9.27;;;4.63;;
39518;SDS011;25200;53.394;10.414;2022-10-23T05:03:14;10.50;;;4.88;;
39518;SDS011;25200;53.394;10.414;2022-10-23T05:05:41;8.35;;;4.68;;
39518;SDS011;25200;53.394;10.414;2022-10-23T05:08:07;7.22;;;4.82;;
39518;SDS011;25200;53.394;10.414;2022-10-23T05:10:33;11.07;;;4.68;;
39518;SDS011;25200;53.394;10.414;2022-10-23T05:12:59;8.60;;;4.57;;
39518;SDS011;25200;53.394;10.414;2022-10-23T05:15:24;8.98;;;4.32;;
39518;SDS011;25200;53.394;10.414;2022-10-23T05:17:51;9.27;;;4.50;;
39518;SDS011;25200;53.394;10.414;2022-10-23T05:20:22;10.88;;;4.28;;
39518;SDS011;25200;53.394;10.414;2022-10-23T05:22:52;11.00;;;4.30;;
39518;SDS011;25200;53.394;10.414;2022-10-23T05:25:20;7.65;;;4.40;;
39518;SDS011;25200;53.394;10.414;2022-10-23T05:27:46;10.80;;;4.95;;
39518;SDS011;25200;53.394;10.414;2022-10-23T05:30:12;9.95;;;5.10;;
39518;SDS011;25200;53.394;10.414;2022-10-23T05:32:38;10.85;;;4.75;;
39518;SDS011;25200;53.394;10.414;2022-10-23T05:35:08;8.05;;;4.78;;
39518;SDS011;25200;53.394;10.414;2022-10-23T05:37:37;8.93;;;4.55;;
39518;SDS011;25200;53.394;10.414;2022-10-23T05:40:05;8.07;;;4.20;;
39518;SDS011;25200;53.394;10.414;2022-10-23T05:42:32;8.43;;;4.22;;
39518;SDS011;25200;53.394;10.414;2022-10-23T05:44:57;9.80;;;4.60;;
39518;SDS011;25200;53.394;10.414;2022-10-23T05:47:23;7.97;;;4.40;;
39518;SDS011;25200;53.394;10.414;2022-10-23T05:49:49;8.23;;;4.13;;
39518;SDS011;25200;53.394;10.414;2022-10-23T05:52:14;10.45;;;4.35;;
39518;SDS011;25200;53.394;10.414;2022-10-23T05:54:40;11.40;;;4.32;;
39518;SDS011;25200;53.394;10.414;2022-10-23T05:57:06;10.50;;;3.97;;
39518;SDS011;25200;53.394;10.414;2022-10-23T05:59:32;11.27;;;4.90;;
39518;SDS011;25200;53.394;10.414;2022-10-23T06:01:57;9.10;;;3.80;;
39518;SDS011;25200;53.394;10.414;2022-10-23T06:04:23;7.88;;;4.22;;
39518;SDS011;25200;53.394;10.414;2022-10-23T06:06:49;10.00;;;3.83;;
39518;SDS011;25200;53.394;10.414;2022-10-23T06:09:14;9.05;;;4.20;;
39518;SDS011;25200;53.394;10.414;2022-10-23T06:11:40;13.00;;;4.38;;
39518;SDS011;25200;53.394;10.414;2022-10-23T06:14:06;9.23;;;4.13;;
39518;SDS011;25200;53.394;10.414;2022-10-23T06:16:32;10.95;;;4.00;;
39518;SDS011;25200;53.394;10.414;2022-10-23T06:18:58;8.23;;;4.15;;
39518;SDS011;25200;53.394;10.414;2022-10-23T06:21:24;8.27;;;3.83;;
39518;SDS011;25200;53.394;10.414;2022-10-23T06:23:50;10.10;;;3.88;;
39518;SDS011;25200;53.394;10.414;2022-10-23T06:26:16;11.50;;;4.65;;
39518;SDS011;25200;53.394;10.414;2022-10-23T06:28:43;7.70;;;3.88;;
39518;SDS011;25200;53.394;10.414;2022-10-23T06:31:11;8.65;;;4.20;;
39518;SDS011;25200;53.394;10.414;2022-10-23T06:33:39;7.40;;;4.25;;
39518;SDS011;25200;53.394;10.414;2022-10-23T06:36:05;7.35;;;3.67;;
39518;SDS011;25200;53.394;10.414;2022-10-23T06:38:34;8.82;;;4.15;;
39518;SDS011;25200;53.394;10.414;2022-10-23T06:41:04;10.52;;;4.20;;
39518;SDS011;25200;53.394;10.414;2022-10-23T06:43:31;9.07;;;4.50;;
39518;SDS011;25200;53.394;10.414;2022-10-23T06:45:59;10.23;;;4.25;;
39518;SDS011;25200;53.394;10.414;2022-10-23T06:48:26;9.23;;;4.00;;
39518;SDS011;25200;53.394;10.414;2022-10-23T06:50:51;11.55;;;4.15;;
39518;SDS011;25200;53.394;10.414;2022-10-23T06:53:17;9.50;;;4.93;;
39518;SDS011;25200;53.394;10.414;2022-10-23T06:55:42;13.07;;;4.82;;
39518;SDS011;25200;53.394;10.414;2022-10-23T06:58:08;11.55;;;4.20;;
39518;SDS011;25200;53.394;10.414;2022-10-23T07:00:37;9.07;;;4.22;;
39518;SDS011;25200;53.394;10.414;2022-10-23T07:03:03;9.73;;;4.50;;
39518;SDS011;25200;53.394;10.414;2022-10-23T07:05:29;15.38;;;4.75;;
39518;SDS011;25200;53.394;10.414;2022-10-23T07:07:55;8.10;;;4.70;;
39518;SDS011;25200;53.394;10.414;2022-10-23T07:10:20;8.93;;;4.38;;
39518;SDS011;25200;53.394;10.414;2022-10-23T07:12:46;12.95;;;4.53;;
39518;SDS011;25200;53.394;10.414;2022-10-23T07:15:13;9.60;;;4.95;;
39518;SDS011;25200;53.394;10.414;2022-10-23T07:17:39;8.65;;;4.45;;
39518;SDS011;25200;53.394;10.414;2022-10-23T07:20:05;12.73;;;5.55;;
39518;SDS011;25200;53.394;10.414;2022-10-23T07:22:31;12.23;;;5.05;;
39518;SDS011;25200;53.394;10.414;2022-10-23T07:24:57;8.77;;;4.95;;
39518;SDS011;25200;53.394;10.414;2022-10-23T07:27:23;8.75;;;5.03;;
39518;SDS011;25200;53.394;10.414;2022-10-23T07:29:49;11.30;;;5.75;;
39518;SDS011;25200;53.394;10.414;2022-10-23T07:32:15;11.55;;;5.90;;
39518;SDS011;25200;53.394;10.414;2022-10-23T07:34:41;9.10;;;5.43;;
39518;SDS011;25200;53.394;10.414;2022-10-23T07:37:07;8.50;;;5.05;;
39518;SDS011;25200;53.394;10.414;2022-10-23T07:39:32;11.15;;;5.72;;
39518;SDS011;25200;53.394;10.414;2022-10-23T07:41:58;10.35;;;5.30;;
39518;SDS011;25200;53.394;10.414;2022-10-23T07:44:23;8.70;;;5.10;;
39518;SDS011;25200;53.394;10.414;2022-10-23T07:46:49;12.35;;;5.65;;
39518;SDS011;25200;53.394;10.414;2022-10-23T07:49:15;12.13;;;5.68;;
39518;SDS011;25200;53.394;10.414;2022-10-23T07:51:41;13.57;;;6.35;;
39518;SDS011;25200;53.394;10.414;2022-10-23T07:54:07;15.05;;;6.43;;
39518;SDS011;25200;53.394;10.414;2022-10-23T07:56:34;10.95;;;6.07;;
39518;SDS011;25200;53.394;10.414;2022-10-23T07:59:00;16.58;;;6.35;;
39518;SDS011;25200;53.394;10.414;2022-10-23T08:01:33;17.38;;;6.18;;
39518;SDS011;25200;53.394;10.414;2022-10-23T08:04:01;12.55;;;6.20;;
39518;SDS011;25200;53.394;10.414;2022-10-23T08:06:27;17.60;;;7.15;;
39518;SDS011;25200;53.394;10.414;2022-10-23T08:08:53;14.50;;;6.93;;
39518;SDS011;25200;53.394;10.414;2022-10-23T08:11:20;11.52;;;6.20;;
39518;SDS011;25200;53.394;10.414;2022-10-23T08:13:51;11.95;;;5.78;;
39518;SDS011;25200;53.394;10.414;2022-10-23T08:16:18;13.63;;;6.47;;
39518;SDS011;25200;53.394;10.414;2022-10-23T08:18:45;15.02;;;6.35;;
39518;SDS011;25200;53.394;10.414;2022-10-23T08:21:12;11.55;;;6.60;;
39518;SDS011;25200;53.394;10.414;2022-10-23T08:23:37;17.20;;;7.15;;
39518;SDS011;25200;53.394;10.414;2022-10-23T08:26:04;14.32;;;7.28;;
39518;SDS011;25200;53.394;10.414;2022-10-23T08:28:30;17.48;;;7.43;;
39518;SDS011;25200;53.394;10.414;2022-10-23T08:30:56;15.57;;;7.05;;
39518;SDS011;25200;53.394;10.414;2022-10-23T08:33:23;12.75;;;6.57;;
39518;SDS011;25200;53.394;10.414;2022-10-23T08:35:49;14.70;;;6.20;;
39518;SDS011;25200;53.394;10.414;2022-10-23T08:38:15;16.23;;;6.75;;
39518;SDS011;25200;53.394;10.414;2022-10-23T08:40:45;14.43;;;7.45;;
39518;SDS011;25200;53.394;10.414;2022-10-23T08:46:08;14.38;;;7.63;;
39518;SDS011;25200;53.394;10.414;2022-10-23T08:48:46;16.55;;;7.63;;
39518;SDS011;25200;53.394;10.414;2022-10-23T08:51:18;13.88;;;6.95;;
39518;SDS011;25200;53.394;10.414;2022-10-23T08:53:58;15.27;;;7.68;;
39518;SDS011;25200;53.394;10.414;2022-10-23T08:56:40;18.52;;;6.80;;
39518;SDS011;25200;53.394;10.414;2022-10-23T08:59:16;11.02;;;6.75;;
39518;SDS011;25200;53.394;10.414;2022-10-23T09:01:57;14.63;;;6.47;;
39518;SDS011;25200;53.394;10.414;2022-10-23T09:04:45;12.73;;;6.10;;
39518;SDS011;25200;53.394;10.414;2022-10-23T09:07:25;17.60;;;6.88;;
39518;SDS011;25200;53.394;10.414;2022-10-23T09:12:46;16.88;;;6.45;;
39518;SDS011;25200;53.394;10.414;2022-10-23T09:17:45;10.95;;;6.47;;
39518;SDS011;25200;53.394;10.414;2022-10-23T09:20:16;12.50;;;6.60;;
39518;SDS011;25200;53.394;10.414;2022-10-23T09:25:38;13.18;;;5.95;;
39518;SDS011;25200;53.394;10.414;2022-10-23T09:28:05;10.57;;;5.90;;
39518;SDS011;25200;53.394;10.414;2022-10-23T09:30:38;11.23;;;6.10;;
39518;SDS011;25200;53.394;10.414;2022-10-23T09:33:25;14.98;;;6.07;;
39518;SDS011;25200;53.394;10.414;2022-10-23T09:36:02;17.67;;;5.82;;
39518;SDS011;25200;53.394;10.414;2022-10-23T09:43:46;11.15;;;5.75;;
39518;SDS011;25200;53.394;10.414;2022-10-23T09:46:23;10.07;;;5.03;;
39518;SDS011;25200;53.394;10.414;2022-10-23T09:48:56;10.55;;;5.90;;
39518;SDS011;25200;53.394;10.414;2022-10-23T09:51:22;10.95;;;5.28;;
39518;SDS011;25200;53.394;10.414;2022-10-23T10:01:58;11.05;;;4.78;;
39518;SDS011;25200;53.394;10.414;2022-10-23T10:04:35;10.05;;;5.05;;
39518;SDS011;25200;53.394;10.414;2022-10-23T10:07:04;11.70;;;4.93;;
39518;SDS011;25200;53.394;10.414;2022-10-23T10:09:39;9.82;;;5.00;;
39518;SDS011;25200;53.394;10.414;2022-10-23T10:12:10;12.02;;;4.72;;
39518;SDS011;25200;53.394;10.414;2022-10-23T10:17:54;10.90;;;4.80;;
39518;SDS011;25200;53.394;10.414;2022-10-23T10:23:12;11.20;;;4.28;;
39518;SDS011;25200;53.394;10.414;2022-10-23T10:25:42;10.85;;;4.28;;
39518;SDS011;25200;53.394;10.414;2022-10-23T10:39:00;8.02;;;4.30;;
39518;SDS011;25200;53.394;10.414;2022-10-23T10:49:00;8.68;;;3.42;;
39518;SDS011;25200;53.394;10.414;2022-10-23T10:51:44;7.78;;;3.03;;
39518;SDS011;25200;53.394;10.414;2022-10-23T11:00:04;7.32;;;2.83;;
39518;SDS011;25200;53.394;10.414;2022-10-23T11:02:39;7.40;;;3.00;;
39518;SDS011;25200;53.394;10.414;2022-10-23T11:07:41;7.25;;;2.92;;
39518;SDS011;25200;53.394;10.414;2022-10-23T11:10:16;7.47;;;3.05;;
39518;SDS011;25200;53.394;10.414;2022-10-23T11:12:46;9.57;;;3.03;;
39518;SDS011;25200;53.394;10.414;2022-10-23T11:15:13;6.40;;;2.95;;
39518;SDS011;25200;53.394;10.414;2022-10-23T11:17:46;8.45;;;2.70;;
39518;SDS011;25200;53.394;10.414;2022-10-23T11:20:30;8.38;;;3.10;;
39518;SDS011;25200;53.394;10.414;2022-10-23T11:26:31;6.10;;;2.70;;
39518;SDS011;25200;53.394;10.414;2022-10-23T11:35:03;10.73;;;2.70;;
39518;SDS011;25200;53.394;10.414;2022-10-23T11:37:37;8.20;;;2.80;;
39518;SDS011;25200;53.394;10.414;2022-10-23T11:45:03;8.60;;;2.70;;
39518;SDS011;25200;53.394;10.414;2022-10-23T11:47:59;7.50;;;2.58;;
39518;SDS011;25200;53.394;10.414;2022-10-23T11:55:57;5.97;;;2.70;;
39518;SDS011;25200;53.394;10.414;2022-10-23T11:58:54;9.13;;;2.38;;
39518;SDS011;25200;53.394;10.414;2022-10-23T12:01:23;11.38;;;3.20;;
39518;SDS011;25200;53.394;10.414;2022-10-23T12:06:41;6.55;;;2.60;;
39518;SDS011;25200;53.394;10.414;2022-10-23T12:12:35;9.10;;;2.70;;
39518;SDS011;25200;53.394;10.414;2022-10-23T12:17:43;7.38;;;3.00;;
39518;SDS011;25200;53.394;10.414;2022-10-23T12:25:23;6.57;;;2.80;;
39518;SDS011;25200;53.394;10.414;2022-10-23T12:30:59;7.75;;;3.03;;
39518;SDS011;25200;53.394;10.414;2022-10-23T12:33:40;7.88;;;2.85;;
39518;SDS011;25200;53.394;10.414;2022-10-23T12:39:22;5.88;;;2.92;;
39518;SDS011;25200;53.394;10.414;2022-10-23T12:42:04;8.40;;;3.10;;
39518;SDS011;25200;53.394;10.414;2022-10-23T12:45:23;9.23;;;3.03;;
39518;SDS011;25200;53.394;10.414;2022-10-23T12:47:45;7.28;;;2.85;;
39518;SDS011;25200;53.394;10.414;2022-10-23T12:50:19;6.72;;;2.92;;
39518;SDS011;25200;53.394;10.414;2022-10-23T12:52:55;6.78;;;2.60;;
39518;SDS011;25200;53.394;10.414;2022-10-23T12:55:22;6.40;;;2.63;;
39518;SDS011;25200;53.394;10.414;2022-10-23T12:57:49;6.45;;;2.60;;
39518;SDS011;25200;53.394;10.414;2022-10-23T13:00:17;8.82;;;2.90;;
39518;SDS011;25200;53.394;10.414;2022-10-23T13:02:45;5.40;;;2.42;;
39518;SDS011;25200;53.394;10.414;2022-10-23T13:05:21;7.60;;;2.60;;
39518;SDS011;25200;53.394;10.414;2022-10-23T13:07:47;6.53;;;2.53;;
39518;SDS011;25200;53.394;10.414;2022-10-23T13:10:14;6.00;;;2.20;;
39518;SDS011;25200;53.394;10.414;2022-10-23T13:12:42;6.88;;;2.30;;
39518;SDS011;25200;53.394;10.414;2022-10-23T13:15:16;6.47;;;2.60;;
39518;SDS011;25200;53.394;10.414;2022-10-23T13:17:44;10.70;;;2.45;;
39518;SDS011;25200;53.394;10.414;2022-10-23T13:20:53;8.88;;;2.40;;
39518;SDS011;25200;53.394;10.414;2022-10-23T13:23:25;6.80;;;2.42;;
39518;SDS011;25200;53.394;10.414;2022-10-23T13:26:02;11.45;;;2.60;;
39518;SDS011;25200;53.394;10.414;2022-10-23T13:41:12;5.90;;;2.40;;
39518;SDS011;25200;53.394;10.414;2022-10-23T13:43:43;6.90;;;2.80;;
39518;SDS011;25200;53.394;10.414;2022-10-23T13:46:13;6.32;;;2.65;;
39518;SDS011;25200;53.394;10.414;2022-10-23T13:48:43;9.93;;;2.60;;
39518;SDS011;25200;53.394;10.414;2022-10-23T13:53:40;7.55;;;3.00;;
39518;SDS011;25200;53.394;10.414;2022-10-23T13:56:05;5.82;;;2.60;;
39518;SDS011;25200;53.394;10.414;2022-10-23T13:58:33;7.45;;;2.55;;
39518;SDS011;25200;53.394;10.414;2022-10-23T14:00:59;6.70;;;2.70;;
39518;SDS011;25200;53.394;10.414;2022-10-23T14:03:25;7.82;;;2.58;;
39518;SDS011;25200;53.394;10.414;2022-10-23T14:05:51;5.75;;;2.72;;
39518;SDS011;25200;53.394;10.414;2022-10-23T14:08:16;5.65;;;2.80;;
39518;SDS011;25200;53.394;10.414;2022-10-23T14:10:43;10.07;;;2.85;;
39518;SDS011;25200;53.394;10.414;2022-10-23T14:13:09;8.07;;;2.60;;
39518;SDS011;25200;53.394;10.414;2022-10-23T14:15:34;7.75;;;3.13;;
39518;SDS011;25200;53.394;10.414;2022-10-23T14:18:00;10.80;;;2.90;;
39518;SDS011;25200;53.394;10.414;2022-10-23T14:20:26;8.13;;;3.00;;
39518;SDS011;25200;53.394;10.414;2022-10-23T14:22:52;7.32;;;2.50;;
39518;SDS011;25200;53.394;10.414;2022-10-23T14:25:17;5.95;;;2.90;;
39518;SDS011;25200;53.394;10.414;2022-10-23T14:27:44;8.30;;;2.70;;
39518;SDS011;25200;53.394;10.414;2022-10-23T14:30:09;9.65;;;3.28;;
39518;SDS011;25200;53.394;10.414;2022-10-23T14:32:35;6.35;;;2.80;;
39518;SDS011;25200;53.394;10.414;2022-10-23T14:35:01;10.27;;;3.40;;
39518;SDS011;25200;53.394;10.414;2022-10-23T14:37:30;8.13;;;3.28;;
39518;SDS011;25200;53.394;10.414;2022-10-23T14:39:57;8.57;;;3.28;;
39518;SDS011;25200;53.394;10.414;2022-10-23T14:42:23;8.70;;;3.22;;
39518;SDS011;25200;53.394;10.414;2022-10-23T14:44:49;8.60;;;3.28;;
39518;SDS011;25200;53.394;10.414;2022-10-23T14:47:15;6.85;;;3.03;;
39518;SDS011;25200;53.394;10.414;2022-10-23T14:49:43;6.68;;;3.08;;
39518;SDS011;25200;53.394;10.414;2022-10-23T14:52:15;10.55;;;3.22;;
39518;SDS011;25200;53.394;10.414;2022-10-23T14:54:41;7.63;;;2.80;;
39518;SDS011;25200;53.394;10.414;2022-10-23T14:57:07;6.53;;;2.63;;
39518;SDS011;25200;53.394;10.414;2022-10-23T14:59:33;6.07;;;2.92;;
39518;SDS011;25200;53.394;10.414;2022-10-23T15:01:59;6.55;;;2.60;;
39518;SDS011;25200;53.394;10.414;2022-10-23T15:04:24;8.13;;;2.70;;
39518;SDS011;25200;53.394;10.414;2022-10-23T15:06:50;9.63;;;3.20;;
39518;SDS011;25200;53.394;10.414;2022-10-23T15:09:17;7.00;;;2.80;;
39518;SDS011;25200;53.394;10.414;2022-10-23T15:11:46;10.02;;;3.42;;
39518;SDS011;25200;53.394;10.414;2022-10-23T15:14:12;7.43;;;2.88;;
39518;SDS011;25200;53.394;10.414;2022-10-23T15:16:38;6.78;;;2.85;;
39518;SDS011;25200;53.394;10.414;2022-10-23T15:19:08;7.35;;;3.00;;
39518;SDS011;25200;53.394;10.414;2022-10-23T15:21:35;8.15;;;3.60;;
39518;SDS011;25200;53.394;10.414;2022-10-23T15:24:00;7.97;;;3.40;;
39518;SDS011;25200;53.394;10.414;2022-10-23T15:26:27;7.97;;;2.83;;
39518;SDS011;25200;53.394;10.414;2022-10-23T15:28:54;6.63;;;3.05;;
39518;SDS011;25200;53.394;10.414;2022-10-23T15:34:02;8.43;;;3.55;;
39518;SDS011;25200;53.394;10.414;2022-10-23T15:36:31;11.60;;;3.78;;
39518;SDS011;25200;53.394;10.414;2022-10-23T15:38:58;10.43;;;3.75;;
39518;SDS011;25200;53.394;10.414;2022-10-23T15:41:30;12.57;;;3.50;;
39518;SDS011;25200;53.394;10.414;2022-10-23T15:43:57;8.60;;;3.53;;
39518;SDS011;25200;53.394;10.414;2022-10-23T15:46:24;8.15;;;3.00;;
39518;SDS011;25200;53.394;10.414;2022-10-23T15:48:50;8.00;;;3.17;;
39518;SDS011;25200;53.394;10.414;2022-10-23T15:51:16;8.00;;;3.38;;
39518;SDS011;25200;53.394;10.414;2022-10-23T15:53:41;6.25;;;3.25;;
39518;SDS011;25200;53.394;10.414;2022-10-23T15:56:07;9.45;;;3.60;;
39518;SDS011;25200;53.394;10.414;2022-10-23T15:58:33;11.23;;;3.95;;
39518;SDS011;25200;53.394;10.414;2022-10-23T16:01:00;10.20;;;3.75;;
39518;SDS011;25200;53.394;10.414;2022-10-23T16:03:30;10.10;;;3.92;;
39518;SDS011;25200;53.394;10.414;2022-10-23T16:05:56;6.85;;;3.42;;
39518;SDS011;25200;53.394;10.414;2022-10-23T16:08:22;11.13;;;4.15;;
39518;SDS011;25200;53.394;10.414;2022-10-23T16:10:50;9.07;;;3.60;;
39518;SDS011;25200;53.394;10.414;2022-10-23T16:13:15;9.93;;;3.30;;
39518;SDS011;25200;53.394;10.414;2022-10-23T16:15:41;8.38;;;3.03;;
39518;SDS011;25200;53.394;10.414;2022-10-23T16:18:07;6.00;;;3.03;;
39518;SDS011;25200;53.394;10.414;2022-10-23T16:20:34;9.32;;;3.00;;
39518;SDS011;25200;53.394;10.414;2022-10-23T16:23:03;9.65;;;3.60;;
39518;SDS011;25200;53.394;10.414;2022-10-23T16:25:29;7.13;;;3.00;;
39518;SDS011;25200;53.394;10.414;2022-10-23T16:27:56;6.55;;;3.40;;
39518;SDS011;25200;53.394;10.414;2022-10-23T16:30:23;7.57;;;3.30;;
39518;SDS011;25200;53.394;10.414;2022-10-23T16:32:48;11.48;;;3.50;;
39518;SDS011;25200;53.394;10.414;2022-10-23T16:35:14;8.15;;;3.05;;
39518;SDS011;25200;53.394;10.414;2022-10-23T16:37:40;11.80;;;3.13;;
39518;SDS011;25200;53.394;10.414;2022-10-23T16:40:06;8.05;;;3.00;;
39518;SDS011;25200;53.394;10.414;2022-10-23T16:42:32;7.72;;;3.00;;
39518;SDS011;25200;53.394;10.414;2022-10-23T16:44:58;7.82;;;3.30;;
39518;SDS011;25200;53.394;10.414;2022-10-23T16:47:24;9.70;;;3.60;;
39518;SDS011;25200;53.394;10.414;2022-10-23T16:49:49;8.77;;;3.22;;
39518;SDS011;25200;53.394;10.414;2022-10-23T16:52:16;8.43;;;3.25;;
39518;SDS011;25200;53.394;10.414;2022-10-23T16:54:42;6.28;;;2.83;;
39518;SDS011;25200;53.394;10.414;2022-10-23T16:57:08;8.90;;;3.30;;
39518;SDS011;25200;53.394;10.414;2022-10-23T16:59:33;8.18;;;2.80;;